Main page
METAR-TAF:

METAR-TAF

Airports :

Aurora Municipal Airport

Aurora, Nebraska, United States

latitude: 40-53-38N, longitude: 097-59-40W, elevation: 1804 ft

Current weather observation

The report was made 21 minutes ago, at 13:55 UTC
Wind 8 mph from the South/Southwest
Temperature 36°F
Humidity 69%
Pressure 30.02 in. Hg
Visibility: 10 miles
Clear sky

METAR: KAUH 291355Z AUTO 20007KT 10SM CLR 02/M03 A3002 RMK AO2 T00151033

Time: 08:16 (14:16 UTC)


TAF: missing

Weather observations and forecasts of more than 4000 airports (METAR and TAF reports).

The available stations are represented by yellow and red dots on the map.

Hover mouse over dot to see the name of the station.

Then click to see weather observations and forecasts.

To change the map : click on the green buttons with a black cross to zoom in, on the green button with a dash to zoom out, or on the green arrows for adjacent maps.


METAR-TAF: